createdAt,value
2017-09-06T00:00:19.993Z,31.9
2017-09-06T00:01:21.608Z,31.9
2017-09-06T00:02:20.098Z,31.9
2017-09-06T00:03:20.157Z,31.9
2017-09-06T00:04:20.277Z,31.9
2017-09-06T00:05:21.905Z,31.8
2017-09-06T00:06:20.353Z,31.9
2017-09-06T00:07:22.079Z,31.9
2017-09-06T00:08:20.153Z,31.9
2017-09-06T00:09:20.520Z,31.9
2017-09-06T00:10:20.300Z,31.9
2017-09-06T00:11:22.202Z,31.9
2017-09-06T00:12:20.313Z,31.9
2017-09-06T00:13:20.743Z,31.9
2017-09-06T00:14:22.011Z,31.9
2017-09-06T00:15:22.069Z,31.8
2017-09-06T00:16:22.496Z,31.9
2017-09-06T00:17:20.555Z,31.9
2017-09-06T00:18:22.579Z,31.8
2017-09-06T00:19:20.695Z,31.9
2017-09-06T00:20:21.049Z,31.8
2017-09-06T00:21:22.690Z,31.8
2017-09-06T00:22:21.146Z,31.8
2017-09-06T00:23:22.526Z,31.8
2017-09-06T00:24:22.843Z,31.8
2017-09-06T00:25:21.006Z,31.8
2017-09-06T00:26:22.998Z,31.8
2017-09-06T00:27:21.416Z,31.8
2017-09-06T00:28:21.120Z,31.8
2017-09-06T00:29:21.470Z,31.8
2017-09-06T00:30:22.712Z,31.8
2017-09-06T00:31:22.792Z,31.8
2017-09-06T00:32:21.582Z,31.8
2017-09-06T00:33:22.872Z,31.8
2017-09-06T00:34:21.564Z,31.8
2017-09-06T00:35:23.231Z,31.8
2017-09-06T00:36:21.406Z,31.8
2017-09-06T00:37:23.368Z,31.8
2017-09-06T00:38:21.486Z,31.8
2017-09-06T00:39:23.139Z,31.8
2017-09-06T00:40:21.611Z,31.8
2017-09-06T00:41:21.761Z,31.8
2017-09-06T00:42:22.009Z,31.8
2017-09-06T00:43:23.442Z,31.8
2017-09-06T00:44:23.445Z,31.8
2017-09-06T00:45:21.883Z,31.8
2017-09-06T00:46:23.561Z,31.8
2017-09-06T00:47:23.551Z,31.8
2017-09-06T00:48:23.649Z,31.8
2017-09-06T00:49:23.635Z,31.8
2017-09-06T00:50:23.637Z,31.8
2017-09-06T00:51:24.011Z,31.8
2017-09-06T00:52:22.251Z,31.8
2017-09-06T00:53:24.161Z,31.8
2017-09-06T00:54:23.863Z,31.8
2017-09-06T00:55:23.939Z,31.8
2017-09-06T00:56:22.369Z,31.8
2017-09-06T00:57:22.740Z,31.8
2017-09-06T00:58:24.453Z,31.8
2017-09-06T00:59:24.434Z,31.8
2017-09-06T01:00:24.472Z,31.8
2017-09-06T01:01:24.465Z,31.8
2017-09-06T01:02:24.257Z,31.8
2017-09-06T01:03:22.742Z,31.8
2017-09-06T01:04:24.630Z,31.8
2017-09-06T01:05:23.135Z,31.8
2017-09-06T01:06:24.718Z,31.8
2017-09-06T01:07:22.901Z,31.8
2017-09-06T01:08:24.492Z,31.8
2017-09-06T01:09:24.568Z,31.8
2017-09-06T01:10:24.634Z,31.8
2017-09-06T01:11:23.451Z,31.8
2017-09-06T01:12:25.061Z,31.8
2017-09-06T01:13:25.172Z,31.8
2017-09-06T01:14:23.359Z,31.8
2017-09-06T01:15:24.191Z,31.8
2017-09-06T01:16:25.713Z,31.8
2017-09-06T01:17:24.026Z,31.8
2017-09-06T01:18:25.658Z,31.8
2017-09-06T01:19:25.567Z,31.8
2017-09-06T01:20:25.605Z,31.8
2017-09-06T01:21:24.386Z,31.8
2017-09-06T01:22:23.942Z,31.8
2017-09-06T01:23:26.076Z,31.8
2017-09-06T01:24:24.018Z,31.8
2017-09-06T01:25:25.658Z,31.8
2017-09-06T01:26:24.218Z,31.8
2017-09-06T01:27:24.597Z,31.8
2017-09-06T01:28:25.752Z,31.8
2017-09-06T01:29:24.476Z,31.8
2017-09-06T01:30:26.125Z,31.8
2017-09-06T01:31:24.233Z,31.8
2017-09-06T01:32:25.936Z,31.8
2017-09-06T01:33:24.649Z,31.8
2017-09-06T01:34:26.567Z,31.8
2017-09-06T01:35:24.572Z,31.8
2017-09-06T01:36:24.536Z,31.7
2017-09-06T01:37:26.211Z,31.8
2017-09-06T01:38:24.524Z,31.8
2017-09-06T01:39:24.671Z,31.8
2017-09-06T01:40:26.654Z,31.8
2017-09-06T01:41:24.733Z,31.7
2017-09-06T01:42:24.998Z,31.8
2017-09-06T01:43:24.875Z,31.8
2017-09-06T01:44:26.575Z,31.8
2017-09-06T01:45:27.257Z,31.8
2017-09-06T01:46:26.686Z,31.8
2017-09-06T01:47:26.942Z,31.8
2017-09-06T01:48:25.149Z,31.8
2017-09-06T01:49:26.728Z,31.8
2017-09-06T01:50:25.488Z,31.8
2017-09-06T01:51:27.992Z,31.8
2017-09-06T01:52:26.876Z,31.8
2017-09-06T01:53:27.082Z,31.8
2017-09-06T01:54:25.446Z,31.8
2017-09-06T01:55:25.795Z,31.8
2017-09-06T01:56:25.650Z,31.8
2017-09-06T01:57:27.923Z,31.7
2017-09-06T01:58:26.230Z,31.8
2017-09-06T01:59:27.712Z,31.8
2017-09-06T02:00:26.433Z,31.8
2017-09-06T02:01:27.632Z,31.7
2017-09-06T02:02:25.941Z,31.8
2017-09-06T02:03:28.049Z,31.8
2017-09-06T02:04:27.505Z,31.8
2017-09-06T02:05:30.004Z,31.8
2017-09-06T02:06:29.136Z,31.8
2017-09-06T02:07:30.395Z,31.8
2017-09-06T02:08:30.454Z,31.7
2017-09-06T02:09:27.504Z,31.7
2017-09-06T02:10:26.260Z,31.8
2017-09-06T02:11:26.731Z,31.7
2017-09-06T02:12:26.411Z,31.8
2017-09-06T02:13:26.991Z,31.8
2017-09-06T02:14:28.331Z,31.7
2017-09-06T02:15:29.796Z,31.7
2017-09-06T02:16:30.231Z,31.7
2017-09-06T02:17:29.088Z,31.7
2017-09-06T02:18:29.199Z,31.7
2017-09-06T02:19:28.519Z,31.7
2017-09-06T02:20:29.760Z,31.7
2017-09-06T02:21:28.415Z,31.7
2017-09-06T02:22:27.399Z,31.7
2017-09-06T02:23:29.689Z,31.7
2017-09-06T02:24:31.815Z,31.7
2017-09-06T02:25:33.386Z,31.7
2017-09-06T02:26:30.647Z,31.7
2017-09-06T02:27:32.129Z,31.7
2017-09-06T02:28:29.506Z,31.7
2017-09-06T02:29:27.450Z,31.7
2017-09-06T02:30:29.169Z,31.7
2017-09-06T02:31:29.430Z,31.7
2017-09-06T02:32:31.416Z,31.7
2017-09-06T02:33:34.664Z,31.7
2017-09-06T02:34:31.461Z,31.7
2017-09-06T02:35:30.680Z,31.7
2017-09-06T02:36:33.896Z,31.7
2017-09-06T02:37:29.769Z,31.7
2017-09-06T02:38:27.640Z,31.7
2017-09-06T02:39:30.106Z,31.7
2017-09-06T02:40:29.911Z,31.7
2017-09-06T02:41:28.869Z,31.7
2017-09-06T02:42:29.623Z,31.7
2017-09-06T02:43:27.750Z,31.7
2017-09-06T02:44:29.796Z,31.7
2017-09-06T02:45:28.316Z,31.7
2017-09-06T02:46:28.427Z,31.7
2017-09-06T02:47:28.382Z,31.7
2017-09-06T02:48:28.345Z,31.7
2017-09-06T02:49:28.581Z,31.7
2017-09-06T02:50:28.689Z,31.7
2017-09-06T02:51:28.517Z,31.7
2017-09-06T02:52:28.565Z,31.8
2017-09-06T02:53:28.480Z,31.8
2017-09-06T02:54:28.268Z,31.8
2017-09-06T02:55:30.100Z,31.8
2017-09-06T02:56:30.096Z,31.8
2017-09-06T02:57:28.706Z,31.8
2017-09-06T02:58:30.207Z,31.7
2017-09-06T02:59:28.590Z,31.7
2017-09-06T03:00:28.353Z,31.7
2017-09-06T03:01:30.022Z,31.7
2017-09-06T03:02:28.454Z,31.7
2017-09-06T03:03:30.619Z,31.7
2017-09-06T03:04:30.753Z,31.7
2017-09-06T03:05:28.846Z,31.7
2017-09-06T03:06:28.807Z,31.7
2017-09-06T03:07:28.995Z,31.7
2017-09-06T03:08:30.690Z,31.7
2017-09-06T03:09:29.247Z,31.7
2017-09-06T03:10:29.133Z,31.7
2017-09-06T03:11:30.836Z,31.7
2017-09-06T03:12:30.774Z,31.7
2017-09-06T03:13:30.531Z,31.7
2017-09-06T03:14:29.613Z,31.7
2017-09-06T03:15:29.445Z,31.7
2017-09-06T03:16:29.097Z,31.7
2017-09-06T03:17:29.456Z,31.7
2017-09-06T03:18:30.238Z,31.7
2017-09-06T03:19:29.681Z,31.7
2017-09-06T03:20:32.010Z,31.7
2017-09-06T03:21:30.026Z,31.7
2017-09-06T03:22:30.053Z,31.7
2017-09-06T03:23:31.299Z,31.7
2017-09-06T03:24:31.054Z,31.7
2017-09-06T03:25:31.448Z,31.7
2017-09-06T03:26:32.017Z,31.7
2017-09-06T03:27:31.229Z,31.7
2017-09-06T03:28:30.075Z,31.7
2017-09-06T03:29:31.734Z,31.7
2017-09-06T03:30:31.790Z,31.7
2017-09-06T03:31:29.897Z,31.7
2017-09-06T03:32:32.050Z,31.7
2017-09-06T03:33:31.830Z,31.7
2017-09-06T03:34:29.979Z,31.7
2017-09-06T03:35:29.990Z,31.7
2017-09-06T03:36:30.281Z,31.7
2017-09-06T03:37:30.354Z,31.7
2017-09-06T03:38:30.317Z,31.7
2017-09-06T03:39:31.688Z,31.7
2017-09-06T03:40:30.203Z,31.7
2017-09-06T03:41:30.180Z,31.7
2017-09-06T03:42:31.723Z,31.7
2017-09-06T03:43:30.526Z,31.7
2017-09-06T03:44:32.362Z,31.7
2017-09-06T03:45:32.191Z,31.7
2017-09-06T03:46:31.941Z,31.7
2017-09-06T03:47:32.023Z,31.7
2017-09-06T03:48:32.407Z,31.7
2017-09-06T03:49:30.862Z,31.7
2017-09-06T03:50:31.176Z,31.7
2017-09-06T03:51:30.685Z,31.7
2017-09-06T03:52:32.145Z,31.7
2017-09-06T03:53:32.329Z,31.7
2017-09-06T03:54:32.278Z,31.7
2017-09-06T03:55:31.139Z,31.7
2017-09-06T03:56:32.645Z,31.7
2017-09-06T03:57:30.875Z,31.7
2017-09-06T03:58:30.987Z,31.7
2017-09-06T03:59:31.279Z,31.7
2017-09-06T04:00:30.997Z,31.7
2017-09-06T04:01:33.024Z,31.7
2017-09-06T04:02:32.992Z,31.7
2017-09-06T04:03:32.791Z,31.7
2017-09-06T04:04:33.153Z,31.7
2017-09-06T04:05:33.201Z,31.7
2017-09-06T04:06:33.213Z,31.7
2017-09-06T04:07:33.001Z,31.7
2017-09-06T04:08:31.702Z,31.7
2017-09-06T04:09:31.786Z,31.7
2017-09-06T04:10:33.459Z,31.7
2017-09-06T04:11:33.555Z,31.7
2017-09-06T04:12:31.775Z,31.7
2017-09-06T04:13:33.705Z,31.7
2017-09-06T04:14:33.644Z,31.7
2017-09-06T04:15:31.824Z,31.7
2017-09-06T04:16:33.827Z,31.7
2017-09-06T04:17:33.547Z,31.7
2017-09-06T04:18:32.317Z,31.7
2017-09-06T04:19:34.041Z,31.7
2017-09-06T04:20:32.725Z,31.7
2017-09-06T04:21:33.754Z,31.7
2017-09-06T04:22:34.183Z,31.7
2017-09-06T04:23:34.196Z,31.7
2017-09-06T04:24:32.698Z,31.7
2017-09-06T04:25:32.488Z,31.6
2017-09-06T04:26:32.844Z,31.7
2017-09-06T04:27:32.636Z,31.7
2017-09-06T04:28:34.619Z,31.7
2017-09-06T04:29:33.131Z,31.7
2017-09-06T04:30:34.770Z,31.7
2017-09-06T04:31:33.144Z,31.7
2017-09-06T04:32:33.487Z,31.7
2017-09-06T04:33:34.590Z,31.7
2017-09-06T04:34:34.907Z,31.7
2017-09-06T04:35:33.366Z,31.7
2017-09-06T04:36:34.679Z,31.7
2017-09-06T04:37:34.741Z,31.7
2017-09-06T04:38:35.675Z,31.7
2017-09-06T04:39:33.619Z,31.7
2017-09-06T04:40:33.594Z,31.7
2017-09-06T04:41:35.014Z,31.7
2017-09-06T04:42:33.480Z,31.7
2017-09-06T04:43:35.098Z,31.7
2017-09-06T04:44:35.542Z,31.7
2017-09-06T04:45:33.585Z,31.7
2017-09-06T04:46:36.373Z,31.7
2017-09-06T04:47:33.930Z,31.7
2017-09-06T04:48:35.520Z,31.7
2017-09-06T04:49:35.221Z,31.7
2017-09-06T04:50:34.066Z,31.7
2017-09-06T04:51:35.308Z,31.8
2017-09-06T04:52:35.683Z,31.7
2017-09-06T04:53:34.132Z,31.8
2017-09-06T04:54:37.477Z,31.8
2017-09-06T04:55:35.784Z,31.8
2017-09-06T04:56:35.756Z,31.8
2017-09-06T04:57:33.990Z,31.8
2017-09-06T04:58:34.424Z,31.8
2017-09-06T04:59:35.986Z,31.8
2017-09-06T05:00:35.662Z,31.8
2017-09-06T05:01:34.178Z,31.8
2017-09-06T05:02:34.787Z,31.8
2017-09-06T05:03:36.083Z,31.8
2017-09-06T05:04:35.876Z,31.8
2017-09-06T05:05:34.378Z,31.8
2017-09-06T05:06:36.823Z,31.8
2017-09-06T05:07:34.727Z,31.8
2017-09-06T05:08:35.062Z,31.8
2017-09-06T05:09:36.086Z,31.8
2017-09-06T05:10:36.407Z,31.8
2017-09-06T05:11:36.150Z,31.8
2017-09-06T05:12:36.197Z,31.8
2017-09-06T05:13:36.235Z,31.8
2017-09-06T05:14:35.249Z,31.9
2017-09-06T05:15:36.591Z,31.9
2017-09-06T05:16:36.628Z,31.9
2017-09-06T05:17:36.293Z,31.9
2017-09-06T05:18:35.036Z,31.9
2017-09-06T05:19:34.779Z,31.9
2017-09-06T05:20:36.994Z,31.9
2017-09-06T05:21:34.948Z,31.9
2017-09-06T05:22:34.866Z,31.9
2017-09-06T05:23:36.618Z,31.9
2017-09-06T05:24:35.087Z,31.9
2017-09-06T05:25:35.101Z,31.9
2017-09-06T05:26:35.402Z,31.9
2017-09-06T05:27:35.477Z,31.9
2017-09-06T05:28:37.071Z,31.9
2017-09-06T05:29:38.393Z,31.9
2017-09-06T05:30:37.703Z,31.9
2017-09-06T05:31:36.687Z,31.9
2017-09-06T05:32:35.720Z,31.9
2017-09-06T05:33:35.644Z,31.9
2017-09-06T05:34:37.243Z,31.9
2017-09-06T05:35:35.418Z,31.9
2017-09-06T05:36:37.713Z,31.9
2017-09-06T05:37:37.188Z,31.9
2017-09-06T05:38:38.384Z,31.9
2017-09-06T05:39:37.089Z,31.9
2017-09-06T05:40:37.443Z,31.9
2017-09-06T05:41:36.617Z,31.9
2017-09-06T05:42:38.414Z,31.9
2017-09-06T05:43:36.442Z,32
2017-09-06T05:44:37.859Z,32
2017-09-06T05:45:36.295Z,32
2017-09-06T05:46:39.330Z,32
2017-09-06T05:47:38.353Z,31.9
2017-09-06T05:48:35.863Z,32
2017-09-06T05:49:42.318Z,32
2017-09-06T05:50:37.852Z,32
2017-09-06T05:51:36.299Z,32
2017-09-06T05:52:37.925Z,32
2017-09-06T05:53:37.652Z,32
2017-09-06T05:54:39.210Z,32
2017-09-06T05:55:41.118Z,32
2017-09-06T05:56:42.527Z,32
2017-09-06T05:57:36.324Z,32
2017-09-06T05:58:37.252Z,32
2017-09-06T05:59:39.571Z,32
2017-09-06T06:00:38.404Z,32
2017-09-06T06:01:38.121Z,32
2017-09-06T06:02:38.865Z,32
2017-09-06T06:03:40.554Z,32
2017-09-06T06:04:39.112Z,32
2017-09-06T06:05:38.937Z,32
2017-09-06T06:06:38.956Z,32
2017-09-06T06:07:39.143Z,32.1
2017-09-06T06:08:45.104Z,32.1
2017-09-06T06:09:37.717Z,32.1
2017-09-06T06:10:39.883Z,32.1
2017-09-06T06:15:40.182Z,32
2017-09-06T06:16:48.850Z,32
2017-09-06T06:17:57.110Z,32
2017-09-06T06:19:47.638Z,32
2017-09-06T06:20:30.226Z,32
2017-09-06T06:21:23.162Z,32
2017-09-06T06:22:21.107Z,32
2017-09-06T06:23:19.606Z,32
2017-09-06T06:24:19.625Z,32.1
2017-09-06T06:25:17.485Z,32.1
2017-09-06T06:26:20.571Z,32.1
2017-09-06T06:27:18.923Z,32.1
2017-09-06T06:28:18.852Z,32.1
2017-09-06T06:29:19.147Z,32.1
2017-09-06T06:30:22.810Z,32.2
2017-09-06T06:31:21.763Z,32.2
2017-09-06T06:32:21.547Z,32.2
2017-09-06T06:33:23.086Z,32.2
2017-09-06T06:34:22.515Z,32.3
2017-09-06T06:35:22.928Z,32.3
2017-09-06T06:36:22.708Z,32.3
2017-09-06T06:37:31.405Z,32.3
2017-09-06T06:38:24.022Z,32.3
2017-09-06T06:39:22.378Z,32.3
2017-09-06T06:40:24.684Z,32.3
2017-09-06T06:41:25.920Z,32.4
2017-09-06T06:42:24.815Z,32.4
2017-09-06T06:43:25.217Z,32.4
2017-09-06T06:44:22.948Z,32.4
2017-09-06T06:45:21.299Z,32.4
2017-09-06T06:46:22.962Z,32.4
2017-09-06T06:47:19.957Z,32.4
2017-09-06T06:48:23.708Z,32.4
2017-09-06T06:49:24.719Z,32.4
2017-09-06T06:50:21.212Z,32.4
2017-09-06T06:51:24.438Z,32.4
2017-09-06T06:52:23.883Z,32.4
2017-09-06T06:53:24.810Z,32.5
2017-09-06T06:54:25.674Z,32.4
2017-09-06T06:55:22.639Z,32.5
2017-09-06T06:56:23.177Z,32.5
2017-09-06T06:57:30.109Z,32.5
2017-09-06T06:58:27.095Z,32.5
2017-09-06T06:59:22.344Z,32.5
2017-09-06T07:00:21.066Z,32.5
2017-09-06T07:01:23.385Z,32.5
2017-09-06T07:02:25.192Z,32.5
2017-09-06T07:03:24.086Z,32.5
2017-09-06T07:04:25.844Z,32.5
2017-09-06T07:05:30.373Z,32.5
2017-09-06T07:06:57.746Z,32.5
2017-09-06T07:07:26.151Z,32.5
2017-09-06T07:08:26.088Z,32.5
2017-09-06T07:09:24.593Z,32.5
2017-09-06T07:10:20.808Z,32.5
2017-09-06T07:11:26.226Z,32.5
2017-09-06T07:12:21.515Z,32.5
2017-09-06T07:13:28.652Z,32.5
2017-09-06T07:14:29.996Z,32.6
2017-09-06T07:15:30.530Z,32.6
2017-09-06T07:17:17.698Z,32.6
2017-09-06T07:18:26.352Z,32.6
2017-09-06T07:20:13.710Z,32.5
2017-09-06T07:20:49.404Z,32.5
2017-09-06T07:21:53.419Z,32.5
2017-09-06T07:22:53.549Z,32.6
2017-09-06T07:23:53.571Z,32.6
2017-09-06T07:24:53.569Z,32.6
2017-09-06T07:25:52.582Z,32.6
2017-09-06T07:26:52.885Z,32.6
2017-09-06T07:27:53.508Z,32.6
2017-09-06T07:28:49.930Z,32.6
2017-09-06T07:30:04.012Z,32.7
2017-09-06T07:30:53.830Z,32.7
2017-09-06T07:31:53.957Z,32.7
2017-09-06T07:32:53.157Z,32.7
2017-09-06T07:33:52.799Z,32.7
2017-09-06T07:35:04.007Z,32.7
2017-09-06T07:35:51.402Z,32.7
2017-09-06T07:36:51.335Z,32.7
2017-09-06T07:38:22.598Z,32.7
2017-09-06T07:40:02.204Z,32.7
2017-09-06T07:41:14.139Z,32.7
2017-09-06T07:42:13.618Z,32.7
2017-09-06T07:42:52.285Z,32.7
2017-09-06T07:43:55.395Z,32.7
2017-09-06T07:45:02.945Z,32.7
2017-09-06T07:46:31.296Z,32.7
2017-09-06T07:47:12.452Z,32.7
2017-09-06T07:48:10.637Z,32.7
2017-09-06T07:48:51.815Z,32.7
2017-09-06T07:49:51.845Z,32.7
2017-09-06T07:50:56.704Z,32.7
2017-09-06T07:51:51.341Z,32.7
2017-09-06T07:52:58.091Z,32.8
2017-09-06T07:53:54.486Z,32.8
2017-09-06T07:54:52.671Z,32.8
2017-09-06T07:55:52.493Z,32.8
2017-09-06T07:56:50.938Z,32.7
2017-09-06T07:57:52.097Z,32.8
2017-09-06T07:58:55.567Z,32.8
2017-09-06T07:59:57.839Z,32.8
2017-09-06T08:00:53.045Z,32.8
2017-09-06T08:01:51.114Z,32.8
2017-09-06T08:02:57.839Z,32.8
2017-09-06T08:03:52.732Z,32.8
2017-09-06T08:04:55.062Z,32.8
2017-09-06T08:05:56.149Z,32.8
2017-09-06T08:07:26.570Z,32.8
2017-09-06T08:08:55.154Z,32.8
2017-09-06T08:10:14.174Z,32.8
2017-09-06T08:11:15.588Z,32.8
2017-09-06T08:13:03.448Z,32.7
2017-09-06T08:16:31.816Z,32.7
2017-09-06T08:20:27.245Z,32.7
2017-09-06T08:20:52.599Z,32.7
2017-09-06T08:21:45.395Z,32.7
2017-09-06T08:22:44.862Z,32.7
2017-09-06T08:23:46.855Z,32.7
2017-09-06T08:24:42.241Z,32.8
2017-09-06T08:28:16.506Z,32.8
2017-09-06T08:28:53.664Z,32.8
2017-09-06T08:29:51.251Z,32.8
2017-09-06T08:30:47.462Z,32.8
2017-09-06T08:31:46.332Z,32.8
2017-09-06T08:32:50.705Z,32.9
2017-09-06T08:38:17.460Z,32.9
2017-09-06T08:53:27.185Z,33
2017-09-06T08:54:21.434Z,33
2017-09-06T08:55:17.856Z,33
2017-09-06T08:56:16.633Z,33
2017-09-06T08:57:21.358Z,33.1
2017-09-06T08:58:17.393Z,33.1
2017-09-06T09:17:17.652Z,31.6
2017-09-06T09:18:12.034Z,31.5
2017-09-06T09:18:57.794Z,31.4
2017-09-06T09:19:58.099Z,31.4
2017-09-06T09:20:53.659Z,31.3
2017-09-06T09:21:53.866Z,31.2
2017-09-06T09:22:55.684Z,31.2
2017-09-06T09:23:56.319Z,31.2
2017-09-06T09:24:56.316Z,31.2
2017-09-06T09:25:57.738Z,31.2
2017-09-06T09:26:54.630Z,31.1
2017-09-06T09:27:55.976Z,31.1
2017-09-06T09:28:56.988Z,31.1
2017-09-06T09:29:56.386Z,31.1
2017-09-06T09:30:56.543Z,31.1
2017-09-06T09:31:56.157Z,31.2
2017-09-06T09:32:56.526Z,31.2
2017-09-06T09:33:56.342Z,31.1
2017-09-06T09:34:54.893Z,31.1
2017-09-06T09:35:56.110Z,31.1
2017-09-06T09:36:58.375Z,31.1
2017-09-06T09:37:57.125Z,31.1
2017-09-06T09:38:55.463Z,31
2017-09-06T09:39:56.363Z,31
2017-09-06T09:40:58.283Z,30.9
2017-09-06T09:41:57.192Z,30.8
2017-09-06T09:42:57.082Z,30.8
2017-09-06T09:43:54.900Z,30.7
2017-09-06T09:44:59.900Z,30.7
2017-09-06T09:45:58.830Z,30.6
2017-09-06T09:46:58.135Z,30.6
2017-09-06T09:47:56.482Z,30.6
2017-09-06T09:48:55.980Z,30.6
2017-09-06T09:49:59.062Z,30.6
2017-09-06T09:50:57.997Z,30.6
2017-09-06T09:51:55.833Z,30.5
2017-09-06T09:52:57.498Z,30.6
2017-09-06T09:53:58.483Z,30.6
2017-09-06T09:54:58.036Z,30.5
2017-09-06T09:56:00.512Z,30.5
2017-09-06T09:56:59.284Z,30.5
2017-09-06T09:57:59.231Z,30.5
2017-09-06T09:58:57.870Z,30.5
2017-09-06T10:00:04.880Z,30.5
2017-09-06T10:00:58.293Z,30.5
2017-09-06T10:02:09.983Z,30.5
2017-09-06T10:03:00.287Z,30.5
2017-09-06T10:03:58.189Z,30.5
2017-09-06T10:05:01.848Z,30.5
2017-09-06T10:05:58.640Z,30.5
2017-09-06T10:07:01.056Z,30.5
2017-09-06T10:08:00.043Z,30.4
2017-09-06T10:09:00.663Z,30.4
2017-09-06T10:10:00.717Z,30.5
2017-09-06T10:10:58.851Z,30.5
2017-09-06T10:12:06.358Z,30.5
2017-09-06T10:13:51.463Z,30.5
2017-09-06T10:15:18.322Z,30.6
2017-09-06T10:16:14.766Z,30.6
2017-09-06T10:17:21.561Z,30.6
2017-09-06T10:34:20.710Z,30.6
2017-09-06T10:35:34.734Z,30.6
2017-09-06T10:37:50.095Z,30.6
2017-09-06T10:42:26.090Z,30.4
2017-09-06T10:46:15.040Z,30.4
2017-09-06T10:47:55.766Z,30.4
2017-09-06T10:49:10.402Z,30.3
2017-09-06T10:50:31.623Z,30.3
2017-09-06T11:09:07.590Z,31.4
2017-09-06T11:10:03.139Z,31.4
2017-09-06T11:11:00.923Z,31.5
2017-09-06T11:12:06.482Z,31.5
2017-09-06T11:13:00.045Z,31.5
2017-09-06T11:14:04.798Z,31.5
2017-09-06T11:15:01.686Z,31.5
2017-09-06T11:15:59.535Z,31.5
2017-09-06T11:16:59.579Z,31.5
2017-09-06T11:18:01.023Z,31.6
2017-09-06T11:18:56.790Z,31.7
2017-09-06T11:20:00.256Z,31.8
2017-09-06T11:21:01.219Z,31.8
2017-09-06T11:21:58.180Z,31.9
2017-09-06T11:22:59.224Z,31.9
2017-09-06T11:23:57.258Z,32
2017-09-06T11:25:01.068Z,32.1
2017-09-06T11:26:00.493Z,32.1
2017-09-06T11:27:00.345Z,32.2
2017-09-06T11:28:03.199Z,32.2
2017-09-06T11:28:58.686Z,32.2
2017-09-06T11:29:58.470Z,32.3
2017-09-06T11:31:00.449Z,32.3
2017-09-06T11:32:04.356Z,32.3
2017-09-06T11:33:01.021Z,32.4
2017-09-06T11:33:59.890Z,32.4
2017-09-06T11:34:59.484Z,32.4
2017-09-06T11:35:58.763Z,32.5
2017-09-06T11:37:00.112Z,32.5
2017-09-06T11:38:00.747Z,32.5
2017-09-06T11:39:02.836Z,32.6
2017-09-06T11:40:02.230Z,32.6
2017-09-06T11:41:01.625Z,32.6
2017-09-06T11:42:02.116Z,32.6
2017-09-06T11:43:02.278Z,32.7
2017-09-06T11:44:02.087Z,32.7
2017-09-06T11:45:02.003Z,32.6
2017-09-06T11:46:02.905Z,32.7
2017-09-06T11:47:01.476Z,32.7
2017-09-06T11:47:57.746Z,32.7
2017-09-06T11:48:57.813Z,32.6
2017-09-06T11:50:01.273Z,32.6
2017-09-06T11:51:03.977Z,32.6
2017-09-06T11:52:01.227Z,32.6
2017-09-06T11:53:03.730Z,32.6
2017-09-06T11:54:01.077Z,32.5
2017-09-06T11:54:59.635Z,32.5
2017-09-06T11:56:03.068Z,32.4
2017-09-06T11:57:00.929Z,32.4
2017-09-06T11:58:00.990Z,32.4
2017-09-06T11:58:59.705Z,32.5
2017-09-06T12:00:01.953Z,32.4
2017-09-06T12:01:00.925Z,32.4
2017-09-06T12:02:02.118Z,32.3
2017-09-06T12:03:01.244Z,32.3
2017-09-06T12:04:01.541Z,32.3
2017-09-06T12:05:02.982Z,32.2
2017-09-06T12:06:01.628Z,32.2
2017-09-06T12:07:00.905Z,32.2
2017-09-06T12:08:03.617Z,32.2
2017-09-06T12:09:04.822Z,32.2
2017-09-06T12:10:07.352Z,32.1
2017-09-06T12:11:09.341Z,32.2
2017-09-06T12:12:11.154Z,32.1
2017-09-06T12:13:09.627Z,32.1
2017-09-06T12:14:06.789Z,32.1
2017-09-06T12:15:02.678Z,32
2017-09-06T12:16:03.048Z,32
2017-09-06T12:17:04.882Z,32
2017-09-06T12:18:05.735Z,32
2017-09-06T12:19:05.396Z,32
2017-09-06T12:20:03.833Z,32
2017-09-06T12:21:04.317Z,32
2017-09-06T12:22:05.583Z,32
2017-09-06T12:23:06.753Z,32.1
2017-09-06T12:24:00.353Z,32.1
2017-09-06T12:25:03.503Z,32
2017-09-06T12:26:01.703Z,32
2017-09-06T12:27:07.561Z,32
2017-09-06T12:28:01.523Z,31.9
2017-09-06T12:29:02.010Z,31.9
2017-09-06T12:30:07.999Z,31.9
2017-09-06T12:31:08.302Z,31.9
2017-09-06T12:32:04.396Z,31.9
2017-09-06T12:33:04.780Z,31.8
2017-09-06T12:34:02.872Z,31.9
2017-09-06T12:35:01.051Z,31.9
2017-09-06T12:36:03.065Z,31.9
2017-09-06T12:37:03.090Z,31.9
2017-09-06T12:38:01.458Z,31.8
2017-09-06T12:39:04.185Z,31.9
2017-09-06T12:40:01.794Z,31.8
2017-09-06T12:41:01.904Z,31.8
2017-09-06T12:42:14.158Z,31.8
2017-09-06T12:43:01.904Z,31.8
2017-09-06T12:44:08.241Z,31.8
2017-09-06T12:45:01.488Z,31.8
2017-09-06T12:46:02.219Z,31.8
2017-09-06T12:47:02.641Z,31.8
2017-09-06T12:48:01.523Z,31.9
2017-09-06T12:49:01.506Z,31.9
2017-09-06T12:50:04.585Z,31.8
2017-09-06T12:51:03.223Z,31.8
2017-09-06T12:52:03.959Z,31.9
2017-09-06T12:53:04.615Z,31.9
2017-09-06T12:54:01.449Z,31.9
2017-09-06T12:55:02.659Z,31.8
2017-09-06T12:56:03.903Z,31.8
2017-09-06T12:57:07.724Z,31.8
2017-09-06T12:58:06.306Z,31.8
2017-09-06T12:59:04.595Z,31.8
2017-09-06T13:00:02.483Z,31.8
2017-09-06T13:01:08.458Z,31.8
2017-09-06T13:02:04.728Z,31.8
2017-09-06T13:03:04.215Z,31.7
2017-09-06T13:04:04.292Z,31.7
2017-09-06T13:05:11.821Z,31.7
2017-09-06T13:06:04.487Z,31.7
2017-09-06T13:07:09.873Z,31.7
2017-09-06T13:08:05.145Z,31.7
2017-09-06T13:09:04.172Z,31.7
2017-09-06T13:10:03.849Z,31.7
2017-09-06T13:11:03.830Z,31.7
2017-09-06T13:12:04.969Z,31.7
2017-09-06T13:13:05.161Z,31.7
2017-09-06T13:14:06.936Z,31.7
2017-09-06T13:15:05.899Z,31.7
2017-09-06T13:16:08.446Z,31.7
2017-09-06T13:17:10.180Z,31.7
2017-09-06T13:18:08.103Z,31.7
2017-09-06T13:19:06.240Z,31.7
2017-09-06T13:20:07.411Z,31.7
2017-09-06T13:21:08.020Z,31.7
2017-09-06T13:22:07.084Z,31.7
2017-09-06T13:23:06.344Z,31.8
2017-09-06T13:24:06.889Z,31.8
2017-09-06T13:25:05.824Z,31.8
2017-09-06T13:26:08.262Z,31.8
2017-09-06T13:27:03.869Z,31.8
2017-09-06T13:28:03.446Z,31.8
2017-09-06T13:29:07.486Z,31.8
2017-09-06T13:30:06.835Z,31.8
2017-09-06T13:31:08.617Z,31.8
2017-09-06T13:32:04.087Z,31.7
2017-09-06T13:33:03.553Z,31.8
2017-09-06T13:34:05.845Z,31.7
2017-09-06T13:35:04.925Z,31.7
2017-09-06T13:36:04.464Z,31.7
2017-09-06T13:37:04.699Z,31.7
2017-09-06T13:38:06.112Z,31.7
2017-09-06T13:39:04.897Z,31.7
2017-09-06T13:40:04.198Z,31.8
2017-09-06T13:41:05.066Z,31.8
2017-09-06T13:42:05.287Z,31.8
2017-09-06T13:43:07.117Z,31.8
2017-09-06T13:44:05.659Z,31.8
2017-09-06T13:45:03.783Z,31.7
2017-09-06T13:46:04.541Z,31.7
2017-09-06T13:47:05.417Z,31.7
2017-09-06T13:48:03.913Z,31.7
2017-09-06T13:49:06.072Z,31.5
2017-09-06T13:50:07.418Z,31.5
2017-09-06T13:51:04.195Z,31.6
2017-09-06T13:52:04.922Z,31.6
2017-09-06T13:53:08.913Z,31.6
2017-09-06T13:54:08.860Z,31.6
2017-09-06T13:55:06.431Z,31.6
2017-09-06T13:56:05.882Z,31.6
2017-09-06T13:57:07.386Z,31.6
2017-09-06T13:58:08.190Z,31.6
2017-09-06T13:59:06.827Z,31.6
2017-09-06T14:00:06.971Z,31.5
2017-09-06T14:01:06.394Z,31.5
2017-09-06T14:02:07.137Z,31.5
2017-09-06T14:03:06.392Z,31.5
2017-09-06T14:04:07.468Z,31.5
2017-09-06T14:05:06.194Z,31.5
2017-09-06T14:06:09.110Z,31.5
2017-09-06T14:07:07.674Z,31.4
2017-09-06T14:08:06.897Z,31.4
2017-09-06T14:09:06.739Z,31.4
2017-09-06T14:10:06.389Z,31.3
2017-09-06T14:11:08.290Z,31.3
2017-09-06T14:12:06.380Z,31.3
2017-09-06T14:13:05.225Z,31.2
2017-09-06T14:14:08.191Z,31.2
2017-09-06T14:15:08.218Z,31.2
2017-09-06T14:16:08.622Z,31.2
2017-09-06T14:17:08.526Z,31.2
2017-09-06T14:18:07.238Z,31.1
2017-09-06T14:19:06.452Z,31.1
2017-09-06T14:20:06.310Z,31.1
2017-09-06T14:21:07.331Z,31.1
2017-09-06T14:22:05.478Z,31.1
2017-09-06T14:23:06.288Z,31
2017-09-06T14:24:07.113Z,31
2017-09-06T14:25:05.592Z,31
2017-09-06T14:26:07.578Z,31
2017-09-06T14:27:07.871Z,31.1
2017-09-06T14:28:05.857Z,31.1
2017-09-06T14:29:08.306Z,31.1
2017-09-06T14:30:06.791Z,31.2
2017-09-06T14:31:07.611Z,31.2
2017-09-06T14:32:08.251Z,31.3
2017-09-06T14:33:07.696Z,31.3
2017-09-06T14:34:09.868Z,31.3
2017-09-06T14:35:09.782Z,31.4
2017-09-06T14:36:08.388Z,31.4
2017-09-06T14:37:09.057Z,31.4
2017-09-06T14:38:09.712Z,31.5
2017-09-06T14:39:09.465Z,31.5
2017-09-06T14:40:08.329Z,31.5
2017-09-06T14:41:09.858Z,31.5
2017-09-06T14:42:08.948Z,31.5
2017-09-06T14:43:09.855Z,31.5
2017-09-06T14:44:08.905Z,31.6
2017-09-06T14:45:07.686Z,31.6
2017-09-06T14:46:08.799Z,31.6
2017-09-06T14:47:09.213Z,31.6
2017-09-06T14:48:08.217Z,31.7
2017-09-06T14:49:08.250Z,31.7
2017-09-06T14:50:07.633Z,31.7
2017-09-06T14:51:09.836Z,31.7
2017-09-06T14:52:08.252Z,31.7
2017-09-06T14:53:10.629Z,31.7
2017-09-06T14:54:09.878Z,31.7
2017-09-06T14:55:11.501Z,31.7
2017-09-06T14:56:08.423Z,31.7
2017-09-06T14:57:10.714Z,31.7
2017-09-06T14:58:07.735Z,31.8
2017-09-06T14:59:09.980Z,31.8